createdAt,value
2023-05-09T00:01:53.825Z,29.77
2023-05-09T00:05:01.898Z,29.71
2023-05-09T00:07:33.020Z,29.67
2023-05-09T00:10:03.472Z,29.68
2023-05-09T00:12:46.298Z,29.73
2023-05-09T00:15:45.793Z,29.75
2023-05-09T00:18:16.729Z,29.79
2023-05-09T00:20:47.547Z,29.85
2023-05-09T00:23:18.351Z,29.88
2023-05-09T00:25:48.404Z,29.92
2023-05-09T00:28:18.485Z,29.92
2023-05-09T00:30:48.503Z,29.93
2023-05-09T00:33:18.692Z,29.96
2023-05-09T00:35:48.791Z,29.99
2023-05-09T00:38:18.961Z,30.00
2023-05-09T00:40:48.968Z,30.06
2023-05-09T00:43:42.109Z,30.10
2023-05-09T00:46:27.669Z,30.13
2023-05-09T00:49:13.960Z,30.11
2023-05-09T00:51:44.306Z,30.16
2023-05-09T00:54:24.122Z,30.19
2023-05-09T00:57:13.302Z,30.19
2023-05-09T01:00:05.800Z,30.19
2023-05-09T01:02:54.261Z,30.21
2023-05-09T01:05:45.831Z,30.22
2023-05-09T01:08:39.971Z,30.24
2023-05-09T01:11:33.531Z,30.26
2023-05-09T01:14:27.123Z,30.30
2023-05-09T01:17:06.240Z,30.31
2023-05-09T01:19:36.429Z,30.36
2023-05-09T01:22:10.111Z,30.37
2023-05-09T01:24:59.684Z,30.40
2023-05-09T01:27:47.600Z,30.41
2023-05-09T01:30:39.519Z,30.44
2023-05-09T01:33:10.046Z,30.45
2023-05-09T01:36:12.731Z,30.47
2023-05-09T01:39:09.248Z,30.50
2023-05-09T01:41:40.018Z,30.55
2023-05-09T01:44:12.809Z,30.56
2023-05-09T01:46:47.632Z,30.59
2023-05-09T01:49:59.260Z,30.63
2023-05-09T01:52:30.525Z,30.65
2023-05-09T01:55:02.906Z,30.68
2023-05-09T01:57:42.498Z,30.70
2023-05-09T02:00:34.343Z,30.70
2023-05-09T02:03:05.853Z,30.77
2023-05-09T02:05:36.616Z,30.79
2023-05-09T02:08:06.871Z,30.79
2023-05-09T02:10:37.094Z,30.82
2023-05-09T02:13:08.275Z,30.86
2023-05-09T02:15:54.010Z,30.89
2023-05-09T02:18:24.422Z,30.92
2023-05-09T02:21:25.920Z,30.94
2023-05-09T02:24:28.810Z,30.95
2023-05-09T02:26:59.685Z,30.98
2023-05-09T02:29:53.408Z,31.01
2023-05-09T02:32:46.665Z,31.04
2023-05-09T02:35:32.546Z,31.06
2023-05-09T02:38:02.898Z,31.09
2023-05-09T02:40:33.522Z,31.12
2023-05-09T02:43:06.830Z,31.14
2023-05-09T02:45:55.220Z,31.19
2023-05-09T02:48:25.311Z,31.20
2023-05-09T02:50:55.332Z,31.25
2023-05-09T02:53:25.774Z,31.26
2023-05-09T02:55:56.439Z,31.28
2023-05-09T02:58:26.740Z,31.34
2023-05-09T03:01:06.175Z,31.38
2023-05-09T03:03:42.857Z,31.39
2023-05-09T03:06:38.065Z,31.43
2023-05-09T03:09:11.985Z,31.46
2023-05-09T03:12:00.348Z,31.49
2023-05-09T03:14:30.410Z,31.52
2023-05-09T03:17:04.978Z,31.54
2023-05-09T03:19:53.203Z,31.58
2023-05-09T03:22:23.742Z,31.60
2023-05-09T03:24:59.770Z,31.65
2023-05-09T03:27:29.867Z,31.68
2023-05-09T03:30:00.014Z,31.73
2023-05-09T03:32:30.376Z,31.75
2023-05-09T03:35:00.691Z,31.77
2023-05-09T03:37:31.650Z,31.81
2023-05-09T03:40:01.781Z,31.84
2023-05-09T03:42:41.956Z,31.86
2023-05-09T03:45:13.251Z,31.88
2023-05-09T03:47:44.402Z,31.92
2023-05-09T03:50:15.181Z,31.94
2023-05-09T03:52:52.653Z,31.98
2023-05-09T03:55:25.152Z,32.01
2023-05-09T03:57:56.347Z,32.04
2023-05-09T04:00:30.238Z,32.06
2023-05-09T04:03:09.891Z,32.08
2023-05-09T04:05:44.270Z,32.10
2023-05-09T04:08:23.048Z,32.12
2023-05-09T04:10:53.903Z,32.13
2023-05-09T04:13:25.362Z,32.15
2023-05-09T04:15:55.520Z,32.17
2023-05-09T04:18:29.066Z,32.19
2023-05-09T04:20:59.124Z,32.23
2023-05-09T04:23:29.237Z,32.24
2023-05-09T04:26:02.349Z,32.25
2023-05-09T04:28:42.226Z,32.28
2023-05-09T04:31:16.165Z,32.31
2023-05-09T04:33:50.477Z,32.33
2023-05-09T04:36:20.627Z,32.34
2023-05-09T04:38:51.390Z,32.34
2023-05-09T04:41:26.685Z,32.37
2023-05-09T04:43:57.109Z,32.39
2023-05-09T04:46:29.314Z,32.42
2023-05-09T04:49:00.391Z,32.45
2023-05-09T04:51:30.654Z,32.47
2023-05-09T04:54:00.803Z,32.49
2023-05-09T04:56:35.788Z,32.53
2023-05-09T04:59:06.606Z,32.57
2023-05-09T05:01:37.185Z,32.59
2023-05-09T05:04:07.415Z,32.63
2023-05-09T05:06:37.531Z,32.65
2023-05-09T05:09:07.903Z,32.66
2023-05-09T05:11:38.052Z,32.69
2023-05-09T05:14:08.657Z,32.72
2023-05-09T05:16:39.270Z,32.74
2023-05-09T05:19:09.660Z,32.77
2023-05-09T05:21:42.159Z,32.79
2023-05-09T05:24:12.268Z,32.81
2023-05-09T05:26:42.561Z,32.83
2023-05-09T05:29:13.293Z,32.85
2023-05-09T05:31:43.352Z,32.86
2023-05-09T05:34:13.506Z,32.86
2023-05-09T05:36:45.016Z,32.88
2023-05-09T05:39:15.507Z,32.89
2023-05-09T05:41:45.668Z,32.89
2023-05-09T05:44:15.841Z,32.90
2023-05-09T05:46:46.956Z,32.94
2023-05-09T05:49:17.540Z,32.96
2023-05-09T05:51:47.836Z,32.96
2023-05-09T05:54:18.182Z,32.96
2023-05-09T05:56:48.367Z,32.99
2023-05-09T05:59:18.716Z,33.01
2023-05-09T06:01:48.849Z,33.03
2023-05-09T06:04:19.259Z,33.01
2023-05-09T06:06:50.139Z,33.03
2023-05-09T06:09:20.181Z,33.05
2023-05-09T06:11:50.225Z,33.03
2023-05-09T06:14:20.293Z,33.04
2023-05-09T06:16:50.578Z,33.05
2023-05-09T06:19:20.835Z,33.03
2023-05-09T06:21:50.894Z,33.04
2023-05-09T06:24:34.487Z,33.05
2023-05-09T06:27:06.624Z,33.05
2023-05-09T06:29:37.005Z,33.05
2023-05-09T06:32:07.524Z,33.05
2023-05-09T06:34:37.635Z,33.04
2023-05-09T06:37:07.832Z,33.03
2023-05-09T06:39:37.844Z,33.02
2023-05-09T06:42:08.066Z,33.01
2023-05-09T06:44:41.688Z,32.99
2023-05-09T06:47:12.321Z,32.98
2023-05-09T06:49:42.499Z,32.97
2023-05-09T06:52:14.213Z,32.97
2023-05-09T06:54:44.588Z,32.94
2023-05-09T06:57:14.832Z,32.93
2023-05-09T06:59:46.193Z,32.91
2023-05-09T07:02:16.548Z,32.89
2023-05-09T07:04:46.720Z,32.86
2023-05-09T07:07:17.716Z,32.84
2023-05-09T07:09:49.224Z,32.82
2023-05-09T07:12:21.456Z,32.80
2023-05-09T07:14:51.615Z,32.79
2023-05-09T07:17:24.013Z,32.75
2023-05-09T07:19:54.338Z,32.75
2023-05-09T07:22:24.549Z,32.72
2023-05-09T07:24:54.849Z,32.71
2023-05-09T07:27:24.833Z,32.68
2023-05-09T07:29:54.942Z,32.67
2023-05-09T07:32:25.213Z,32.64
2023-05-09T07:34:55.687Z,32.63
2023-05-09T07:37:25.859Z,32.59
2023-05-09T07:39:56.112Z,32.58
2023-05-09T07:42:26.440Z,32.55
2023-05-09T07:44:56.626Z,32.54
2023-05-09T07:47:27.307Z,32.54
2023-05-09T07:49:57.899Z,32.52
2023-05-09T07:52:27.977Z,32.48
2023-05-09T07:54:58.104Z,32.45
2023-05-09T07:57:28.257Z,32.44
2023-05-09T07:59:58.569Z,32.43
2023-05-09T08:02:28.802Z,32.42
2023-05-09T08:04:58.919Z,32.40
2023-05-09T08:07:29.053Z,32.39
2023-05-09T08:09:59.410Z,32.39
2023-05-09T08:12:29.606Z,32.36
2023-05-09T08:14:59.896Z,32.36
2023-05-09T08:17:30.040Z,32.35
2023-05-09T08:20:00.260Z,32.35
2023-05-09T08:22:30.337Z,32.36
2023-05-09T08:25:00.873Z,32.35
2023-05-09T08:27:30.991Z,32.35
2023-05-09T08:30:01.477Z,32.34
2023-05-09T08:32:54.018Z,32.32
2023-05-09T08:35:47.282Z,32.32
2023-05-09T08:38:17.313Z,32.13
2023-05-09T08:41:16.799Z,32.33
2023-05-09T08:43:47.117Z,32.31
2023-05-09T08:46:18.381Z,32.32
2023-05-09T08:48:48.529Z,32.31
2023-05-09T08:51:19.348Z,32.30
2023-05-09T08:53:49.607Z,32.30
2023-05-09T08:56:19.942Z,32.31
2023-05-09T08:58:50.588Z,32.28
2023-05-09T09:01:20.734Z,32.28
2023-05-09T09:03:51.186Z,32.30
2023-05-09T09:06:23.245Z,32.31
2023-05-09T09:08:54.135Z,32.31
2023-05-09T09:11:24.661Z,32.31
2023-05-09T09:13:55.938Z,32.29
2023-05-09T09:16:27.332Z,32.28
2023-05-09T09:18:58.917Z,32.28
2023-05-09T09:21:29.242Z,32.25
2023-05-09T09:23:59.582Z,32.20
2023-05-09T09:26:33.204Z,32.18
2023-05-09T09:29:03.624Z,32.18
2023-05-09T09:31:34.877Z,32.15
2023-05-09T09:34:05.282Z,32.17
2023-05-09T09:36:36.044Z,32.13
2023-05-09T09:39:06.839Z,32.15
2023-05-09T09:41:38.245Z,32.16
2023-05-09T09:44:18.862Z,32.21
2023-05-09T09:46:58.083Z,32.25
2023-05-09T09:49:28.906Z,32.24
2023-05-09T09:51:59.652Z,32.24
2023-05-09T09:54:30.125Z,32.27
2023-05-09T09:57:00.158Z,32.24
2023-05-09T09:59:30.492Z,32.22
2023-05-09T10:02:09.656Z,32.28
2023-05-09T10:04:42.710Z,32.29
2023-05-09T10:07:14.923Z,32.25
2023-05-09T10:09:45.457Z,32.28
2023-05-09T10:12:16.800Z,32.31
2023-05-09T10:14:47.485Z,32.34
2023-05-09T10:17:17.913Z,32.36
2023-05-09T10:19:49.267Z,32.36
2023-05-09T10:22:20.648Z,32.33
2023-05-09T10:24:50.876Z,32.34
2023-05-09T10:27:23.735Z,32.29
2023-05-09T10:29:59.344Z,32.30
2023-05-09T10:32:40.112Z,32.33
2023-05-09T10:35:13.248Z,32.35
2023-05-09T10:37:43.797Z,32.36
2023-05-09T10:40:17.027Z,32.39
2023-05-09T10:42:47.096Z,32.40
2023-05-09T10:45:17.471Z,32.41
2023-05-09T10:47:51.248Z,32.42
2023-05-09T10:50:22.704Z,32.41
2023-05-09T10:53:12.808Z,32.40
2023-05-09T10:55:48.918Z,32.40
2023-05-09T10:58:22.216Z,32.38
2023-05-09T11:00:53.490Z,32.40
2023-05-09T11:03:26.214Z,32.40
2023-05-09T11:06:00.396Z,32.40
2023-05-09T11:08:31.397Z,32.40
2023-05-09T11:11:07.845Z,32.40
2023-05-09T11:13:42.981Z,32.40
2023-05-09T11:16:13.952Z,32.38
2023-05-09T11:18:51.876Z,32.39
2023-05-09T11:21:22.433Z,32.38
2023-05-09T11:23:54.564Z,32.39
2023-05-09T11:26:31.077Z,32.37
2023-05-09T11:29:01.497Z,32.35
2023-05-09T11:31:31.593Z,32.34
2023-05-09T11:34:05.998Z,32.33
2023-05-09T11:36:36.949Z,32.32
2023-05-09T11:39:11.043Z,32.32
2023-05-09T11:41:42.637Z,32.31
2023-05-09T11:44:22.472Z,32.32
2023-05-09T11:46:52.519Z,32.31
2023-05-09T11:49:22.697Z,32.30
2023-05-09T11:51:53.088Z,32.30
2023-05-09T11:54:26.334Z,32.30
2023-05-09T11:56:56.477Z,32.28
2023-05-09T11:59:26.534Z,32.27
2023-05-09T12:01:56.588Z,32.28
2023-05-09T12:04:26.747Z,32.28
2023-05-09T12:06:59.641Z,32.26
2023-05-09T12:09:34.388Z,32.26
2023-05-09T12:12:09.996Z,32.25
2023-05-09T12:14:41.141Z,32.24
2023-05-09T12:17:11.802Z,32.23
2023-05-09T12:19:41.906Z,32.24
2023-05-09T12:22:11.980Z,32.22
2023-05-09T12:24:42.097Z,32.20
2023-05-09T12:27:12.338Z,32.10
2023-05-09T12:29:47.272Z,32.17
2023-05-09T12:32:17.904Z,32.19
2023-05-09T12:34:49.836Z,32.20
2023-05-09T12:37:20.785Z,32.19
2023-05-09T12:40:03.774Z,32.17
2023-05-09T12:42:34.184Z,32.17
2023-05-09T12:45:05.171Z,32.17
2023-05-09T12:47:35.882Z,32.13
2023-05-09T12:50:08.005Z,32.17
2023-05-09T12:52:46.969Z,32.13
2023-05-09T12:55:24.539Z,32.14
2023-05-09T12:58:04.633Z,32.12
2023-05-09T13:00:44.227Z,32.13
2023-05-09T13:03:27.439Z,32.12
2023-05-09T13:06:01.635Z,32.19
2023-05-09T13:08:32.120Z,32.14
2023-05-09T13:11:14.966Z,32.11
2023-05-09T13:13:46.727Z,32.08
2023-05-09T13:16:17.736Z,32.06
2023-05-09T13:18:48.282Z,32.04
2023-05-09T13:21:18.562Z,32.04
2023-05-09T13:23:51.443Z,31.92
2023-05-09T13:26:23.270Z,31.74
2023-05-09T13:28:53.780Z,31.51
2023-05-09T13:31:24.084Z,31.35
2023-05-09T13:33:54.339Z,31.20
2023-05-09T13:36:24.566Z,31.07
2023-05-09T13:38:55.904Z,30.98
2023-05-09T13:41:26.027Z,30.92
2023-05-09T13:43:56.155Z,30.75
2023-05-09T13:46:26.320Z,30.61
2023-05-09T13:48:56.899Z,30.55
2023-05-09T13:51:27.227Z,30.45
2023-05-09T13:53:57.667Z,30.40
2023-05-09T13:56:27.854Z,30.31
2023-05-09T13:58:58.067Z,30.28
2023-05-09T14:01:28.283Z,30.23
2023-05-09T14:03:58.353Z,30.16
2023-05-09T14:06:28.785Z,30.18
2023-05-09T14:08:59.048Z,30.10
2023-05-09T14:11:29.365Z,30.05
2023-05-09T14:13:59.573Z,30.02
2023-05-09T14:16:29.861Z,29.94
2023-05-09T14:19:00.814Z,29.93
2023-05-09T14:21:30.967Z,29.96
2023-05-09T14:24:01.054Z,29.93
2023-05-09T14:26:31.821Z,29.88
2023-05-09T14:29:05.767Z,29.84
2023-05-09T14:31:55.967Z,29.76
2023-05-09T14:34:26.127Z,29.82
2023-05-09T14:36:56.336Z,29.86
2023-05-09T14:39:26.745Z,29.83
2023-05-09T14:42:03.776Z,29.81
2023-05-09T14:44:34.292Z,29.80
2023-05-09T14:47:04.699Z,29.78
2023-05-09T14:49:56.587Z,29.79
2023-05-09T14:52:26.935Z,29.82
2023-05-09T14:54:57.396Z,29.74
2023-05-09T14:57:27.484Z,29.74
2023-05-09T15:00:00.878Z,29.69
2023-05-09T15:02:36.010Z,29.69
2023-05-09T15:05:06.555Z,29.65
2023-05-09T15:07:37.128Z,29.60
2023-05-09T15:10:07.277Z,29.57
2023-05-09T15:12:43.860Z,29.56
2023-05-09T15:15:18.507Z,29.54
2023-05-09T15:17:48.810Z,29.51
2023-05-09T15:20:19.622Z,29.50
2023-05-09T15:22:50.960Z,29.44
2023-05-09T15:25:21.977Z,29.41
2023-05-09T15:27:52.087Z,29.39
2023-05-09T15:30:24.839Z,29.38
2023-05-09T15:33:12.966Z,29.36
2023-05-09T15:36:01.392Z,29.31
2023-05-09T15:38:31.701Z,29.30
2023-05-09T15:41:01.792Z,29.27
2023-05-09T15:43:31.987Z,29.27
2023-05-09T15:46:02.354Z,29.23
2023-05-09T15:48:32.573Z,29.13
2023-05-09T15:51:04.085Z,29.01
2023-05-09T15:53:34.261Z,28.93
2023-05-09T15:56:24.717Z,28.89
2023-05-09T15:58:55.123Z,28.83
2023-05-09T16:01:25.227Z,28.83
2023-05-09T16:03:55.529Z,28.78
2023-05-09T16:06:25.902Z,28.77
2023-05-09T16:08:56.168Z,28.70
2023-05-09T16:11:26.537Z,28.67
2023-05-09T16:13:56.746Z,28.64
2023-05-09T16:16:30.619Z,28.63
2023-05-09T16:19:06.755Z,28.64
2023-05-09T16:21:39.018Z,28.59
2023-05-09T16:24:09.531Z,28.58
2023-05-09T16:26:39.675Z,28.55
2023-05-09T16:29:09.815Z,28.53
2023-05-09T16:31:40.185Z,28.51
2023-05-09T16:34:13.847Z,28.49
2023-05-09T16:36:48.939Z,28.43
2023-05-09T16:39:19.824Z,28.38
2023-05-09T16:41:50.397Z,28.40
2023-05-09T16:44:20.863Z,28.38
2023-05-09T16:46:50.923Z,28.35
2023-05-09T16:49:21.449Z,28.35
2023-05-09T16:51:51.929Z,28.33
2023-05-09T16:54:22.808Z,28.36
2023-05-09T16:56:53.074Z,28.28
2023-05-09T16:59:23.478Z,28.33
2023-05-09T17:01:55.274Z,28.26
2023-05-09T17:04:26.091Z,28.26
2023-05-09T17:06:56.226Z,28.27
2023-05-09T17:09:26.588Z,28.24
2023-05-09T17:11:57.139Z,28.19
2023-05-09T17:14:31.039Z,28.18
2023-05-09T17:17:01.597Z,28.18
2023-05-09T17:19:31.896Z,28.17
2023-05-09T17:22:05.889Z,28.14
2023-05-09T17:24:36.406Z,28.09
2023-05-09T17:27:06.747Z,28.12
2023-05-09T17:29:37.737Z,28.08
2023-05-09T17:32:08.193Z,28.07
2023-05-09T17:34:39.462Z,28.07
2023-05-09T17:37:13.195Z,28.01
2023-05-09T17:39:44.147Z,28.04
2023-05-09T17:42:14.431Z,27.99
2023-05-09T17:44:45.637Z,28.00
2023-05-09T17:47:16.089Z,27.96
2023-05-09T17:49:46.363Z,27.94
2023-05-09T17:52:16.559Z,27.94
2023-05-09T17:54:47.294Z,27.93
2023-05-09T17:57:17.412Z,27.93
2023-05-09T18:00:17.003Z,27.88
2023-05-09T18:02:49.427Z,27.92
2023-05-09T18:05:19.895Z,27.88
2023-05-09T18:07:50.977Z,27.88
2023-05-09T18:10:21.783Z,27.85
2023-05-09T18:12:52.396Z,27.82
2023-05-09T18:15:22.884Z,27.85
2023-05-09T18:17:55.442Z,27.82
2023-05-09T18:20:25.759Z,27.85
2023-05-09T18:22:56.070Z,27.76
2023-05-09T18:25:26.589Z,27.81
2023-05-09T18:27:57.292Z,27.78
2023-05-09T18:30:27.478Z,27.73
2023-05-09T18:33:01.551Z,27.75
2023-05-09T18:35:31.727Z,27.72
2023-05-09T18:38:02.553Z,27.74
2023-05-09T18:40:33.948Z,27.70
2023-05-09T18:43:04.116Z,27.69
2023-05-09T18:45:35.204Z,27.66
2023-05-09T18:48:05.673Z,27.65
2023-05-09T18:50:36.136Z,27.62
2023-05-09T18:53:06.240Z,27.60
2023-05-09T18:55:36.660Z,27.62
2023-05-09T18:58:06.814Z,27.58
2023-05-09T19:00:37.675Z,27.57
2023-05-09T19:03:08.557Z,27.57
2023-05-09T19:05:38.843Z,27.58
2023-05-09T19:08:09.457Z,27.53
2023-05-09T19:11:00.682Z,27.53
2023-05-09T19:13:52.238Z,27.48
2023-05-09T19:16:34.488Z,27.48
2023-05-09T19:19:04.932Z,27.50
2023-05-09T19:21:36.969Z,27.53
2023-05-09T19:24:07.971Z,27.52
2023-05-09T19:26:38.259Z,27.50
2023-05-09T19:29:09.667Z,27.49
2023-05-09T19:31:39.783Z,27.47
2023-05-09T19:34:10.884Z,27.45
2023-05-09T19:36:41.093Z,27.43
2023-05-09T19:39:12.632Z,27.42
2023-05-09T19:41:43.100Z,27.44
2023-05-09T19:44:13.486Z,27.42
2023-05-09T19:46:44.269Z,27.42
2023-05-09T19:49:18.028Z,27.41
2023-05-09T19:51:48.381Z,27.40
2023-05-09T19:54:19.148Z,27.33
2023-05-09T19:56:49.396Z,27.31
2023-05-09T19:59:19.559Z,27.34
2023-05-09T20:01:49.858Z,27.34
2023-05-09T20:04:23.188Z,27.35
2023-05-09T20:06:53.241Z,27.33
2023-05-09T20:09:23.398Z,27.33
2023-05-09T20:11:53.694Z,27.31
2023-05-09T20:14:24.544Z,27.30
2023-05-09T20:16:54.989Z,27.29
2023-05-09T20:19:25.461Z,27.28
2023-05-09T20:21:55.641Z,27.28
2023-05-09T20:24:25.883Z,27.28
2023-05-09T20:26:58.949Z,27.25
2023-05-09T20:29:29.117Z,27.21
2023-05-09T20:31:59.670Z,27.25
2023-05-09T20:34:29.885Z,27.18
2023-05-09T20:36:59.995Z,27.21
2023-05-09T20:39:30.340Z,27.18
2023-05-09T20:42:03.607Z,27.16
2023-05-09T20:44:34.048Z,27.20
2023-05-09T20:47:04.256Z,27.15
2023-05-09T20:49:34.783Z,27.12
2023-05-09T20:52:05.781Z,27.08
2023-05-09T20:54:35.891Z,27.11
2023-05-09T20:57:05.997Z,27.11
2023-05-09T20:59:36.200Z,27.09
2023-05-09T21:02:06.739Z,27.13
2023-05-09T21:04:37.066Z,27.09
2023-05-09T21:07:07.174Z,27.08
2023-05-09T21:10:00.608Z,27.10
2023-05-09T21:12:44.369Z,27.11
2023-05-09T21:15:15.334Z,27.11
2023-05-09T21:18:17.860Z,27.09
2023-05-09T21:20:51.076Z,27.08
2023-05-09T21:23:21.223Z,27.06
2023-05-09T21:25:51.326Z,27.03
2023-05-09T21:28:22.201Z,27.02
2023-05-09T21:30:53.732Z,27.03
2023-05-09T21:33:23.986Z,27.02
2023-05-09T21:35:54.129Z,27.02
2023-05-09T21:38:24.550Z,26.97
2023-05-09T21:40:54.776Z,26.98
2023-05-09T21:43:24.942Z,26.97
2023-05-09T21:45:55.140Z,26.94
2023-05-09T21:48:25.275Z,26.93
2023-05-09T21:50:55.431Z,26.89
2023-05-09T21:53:25.598Z,26.91
2023-05-09T21:55:55.787Z,26.87
2023-05-09T21:58:25.954Z,26.89
2023-05-09T22:00:56.120Z,26.88
2023-05-09T22:03:26.381Z,26.84
2023-05-09T22:05:56.542Z,26.84
2023-05-09T22:08:26.766Z,26.83
2023-05-09T22:10:56.991Z,26.85
2023-05-09T22:13:28.699Z,26.84
2023-05-09T22:15:59.334Z,26.88
2023-05-09T22:18:29.531Z,26.89
2023-05-09T22:20:59.701Z,26.86
2023-05-09T22:23:29.845Z,26.84
2023-05-09T22:26:00.037Z,26.80
2023-05-09T22:28:31.544Z,26.80
2023-05-09T22:31:01.653Z,26.79
2023-05-09T22:33:31.747Z,26.80
2023-05-09T22:36:02.528Z,26.78
2023-05-09T22:38:32.676Z,26.77
2023-05-09T22:41:02.848Z,26.74
2023-05-09T22:43:38.839Z,26.77
2023-05-09T22:46:10.549Z,26.82
2023-05-09T22:48:40.701Z,26.73
2023-05-09T22:51:10.890Z,26.76
2023-05-09T22:53:40.982Z,26.74
2023-05-09T22:56:11.488Z,26.72
2023-05-09T22:58:41.742Z,26.73
2023-05-09T23:01:12.534Z,26.79
2023-05-09T23:03:42.852Z,27.16
2023-05-09T23:06:13.729Z,27.57
2023-05-09T23:08:43.787Z,27.83
2023-05-09T23:11:14.314Z,28.11
2023-05-09T23:13:44.516Z,28.32
2023-05-09T23:16:14.750Z,28.48
2023-05-09T23:18:45.935Z,28.65
2023-05-09T23:21:16.124Z,28.82
2023-05-09T23:23:46.518Z,28.93
2023-05-09T23:26:16.830Z,29.06
2023-05-09T23:28:47.065Z,29.15
2023-05-09T23:31:17.253Z,28.85
2023-05-09T23:33:47.547Z,29.35
2023-05-09T23:36:17.782Z,29.42
2023-05-09T23:38:47.854Z,29.52
2023-05-09T23:41:18.057Z,29.56
2023-05-09T23:43:48.771Z,29.64
2023-05-09T23:46:19.091Z,29.72
2023-05-09T23:48:49.334Z,29.75
2023-05-09T23:51:22.006Z,29.77
2023-05-09T23:53:52.749Z,29.84
2023-05-09T23:56:22.959Z,29.77
2023-05-09T23:58:53.070Z,29.72
